sensor_id;sensor_type;location;lat;lon;timestamp;P1;durP1;ratioP1;P2;durP2;ratioP2
9304;SDS011;4690;52.422;13.486;2023-03-23T00:06:26;3.10;;;2.57;;
9304;SDS011;4690;52.422;13.486;2023-03-23T00:08:53;2.53;;;2.33;;
9304;SDS011;4690;52.422;13.486;2023-03-23T00:11:24;2.77;;;2.50;;
9304;SDS011;4690;52.422;13.486;2023-03-23T00:13:56;2.47;;;2.27;;
9304;SDS011;4690;52.422;13.486;2023-03-23T00:16:26;3.30;;;2.30;;
9304;SDS011;4690;52.422;13.486;2023-03-23T00:19:01;3.30;;;2.67;;
9304;SDS011;4690;52.422;13.486;2023-03-23T00:21:31;3.13;;;2.50;;
9304;SDS011;4690;52.422;13.486;2023-03-23T00:24:01;2.60;;;2.40;;
9304;SDS011;4690;52.422;13.486;2023-03-23T00:26:35;2.50;;;2.10;;
9304;SDS011;4690;52.422;13.486;2023-03-23T00:29:10;4.47;;;3.37;;
9304;SDS011;4690;52.422;13.486;2023-03-23T00:31:42;4.50;;;4.00;;
9304;SDS011;4690;52.422;13.486;2023-03-23T00:34:12;4.10;;;3.70;;
9304;SDS011;4690;52.422;13.486;2023-03-23T00:36:44;6.07;;;3.30;;
9304;SDS011;4690;52.422;13.486;2023-03-23T00:39:15;3.50;;;2.47;;
9304;SDS011;4690;52.422;13.486;2023-03-23T00:41:43;2.43;;;2.23;;
9304;SDS011;4690;52.422;13.486;2023-03-23T00:44:10;2.70;;;2.50;;
9304;SDS011;4690;52.422;13.486;2023-03-23T00:46:42;3.67;;;2.50;;
9304;SDS011;4690;52.422;13.486;2023-03-23T00:49:14;2.50;;;2.30;;
9304;SDS011;4690;52.422;13.486;2023-03-23T00:51:56;4.87;;;3.10;;
9304;SDS011;4690;52.422;13.486;2023-03-23T00:54:23;5.17;;;4.43;;
9304;SDS011;4690;52.422;13.486;2023-03-23T00:56:50;4.87;;;4.00;;
9304;SDS011;4690;52.422;13.486;2023-03-23T00:59:17;6.00;;;2.90;;
9304;SDS011;4690;52.422;13.486;2023-03-23T01:01:44;2.80;;;2.60;;
9304;SDS011;4690;52.422;13.486;2023-03-23T01:04:10;2.70;;;2.50;;
9304;SDS011;4690;52.422;13.486;2023-03-23T01:06:37;3.87;;;2.50;;
9304;SDS011;4690;52.422;13.486;2023-03-23T01:09:09;2.93;;;2.40;;
9304;SDS011;4690;52.422;13.486;2023-03-23T01:11:40;3.63;;;2.40;;
9304;SDS011;4690;52.422;13.486;2023-03-23T01:14:11;2.60;;;2.40;;
9304;SDS011;4690;52.422;13.486;2023-03-23T01:16:39;2.60;;;2.30;;
9304;SDS011;4690;52.422;13.486;2023-03-23T01:19:05;2.43;;;2.23;;
9304;SDS011;4690;52.422;13.486;2023-03-23T01:21:31;2.53;;;2.20;;
9304;SDS011;4690;52.422;13.486;2023-03-23T01:23:56;2.67;;;2.37;;
9304;SDS011;4690;52.422;13.486;2023-03-23T01:26:23;3.07;;;2.13;;
9304;SDS011;4690;52.422;13.486;2023-03-23T01:28:52;3.23;;;2.20;;
9304;SDS011;4690;52.422;13.486;2023-03-23T01:31:19;3.43;;;2.40;;
9304;SDS011;4690;52.422;13.486;2023-03-23T01:33:49;3.83;;;2.30;;
9304;SDS011;4690;52.422;13.486;2023-03-23T01:36:17;2.50;;;2.30;;
9304;SDS011;4690;52.422;13.486;2023-03-23T01:38:47;2.97;;;2.20;;
9304;SDS011;4690;52.422;13.486;2023-03-23T01:41:16;3.37;;;2.40;;
9304;SDS011;4690;52.422;13.486;2023-03-23T01:43:54;3.50;;;2.40;;
9304;SDS011;4690;52.422;13.486;2023-03-23T01:46:32;3.03;;;2.47;;
9304;SDS011;4690;52.422;13.486;2023-03-23T01:49:05;2.50;;;2.30;;
9304;SDS011;4690;52.422;13.486;2023-03-23T01:51:39;2.50;;;2.30;;
9304;SDS011;4690;52.422;13.486;2023-03-23T01:54:21;3.47;;;2.43;;
9304;SDS011;4690;52.422;13.486;2023-03-23T01:56:54;2.27;;;2.17;;
9304;SDS011;4690;52.422;13.486;2023-03-23T01:59:32;2.60;;;2.40;;
9304;SDS011;4690;52.422;13.486;2023-03-23T02:02:00;2.50;;;2.30;;
9304;SDS011;4690;52.422;13.486;2023-03-23T02:04:27;3.17;;;2.03;;
9304;SDS011;4690;52.422;13.486;2023-03-23T02:06:55;3.13;;;2.37;;
9304;SDS011;4690;52.422;13.486;2023-03-23T02:09:24;2.60;;;2.37;;
9304;SDS011;4690;52.422;13.486;2023-03-23T02:11:50;2.60;;;2.40;;
9304;SDS011;4690;52.422;13.486;2023-03-23T02:14:19;4.40;;;2.70;;
9304;SDS011;4690;52.422;13.486;2023-03-23T02:19:41;2.33;;;2.10;;
9304;SDS011;4690;52.422;13.486;2023-03-23T02:22:39;2.83;;;2.60;;
9304;SDS011;4690;52.422;13.486;2023-03-23T02:32:02;2.83;;;2.63;;
9304;SDS011;4690;52.422;13.486;2023-03-23T02:34:57;3.63;;;2.63;;
9304;SDS011;4690;52.422;13.486;2023-03-23T02:37:33;4.07;;;2.53;;
9304;SDS011;4690;52.422;13.486;2023-03-23T02:42:41;3.53;;;2.73;;
9304;SDS011;4690;52.422;13.486;2023-03-23T02:45:13;3.93;;;2.60;;
9304;SDS011;4690;52.422;13.486;2023-03-23T02:47:42;2.60;;;2.40;;
9304;SDS011;4690;52.422;13.486;2023-03-23T02:50:11;5.00;;;2.77;;
9304;SDS011;4690;52.422;13.486;2023-03-23T02:52:41;2.80;;;2.50;;
9304;SDS011;4690;52.422;13.486;2023-03-23T02:55:09;4.20;;;2.67;;
9304;SDS011;4690;52.422;13.486;2023-03-23T02:57:39;2.77;;;2.47;;
9304;SDS011;4690;52.422;13.486;2023-03-23T03:00:06;2.63;;;2.43;;
9304;SDS011;4690;52.422;13.486;2023-03-23T03:02:38;3.57;;;2.33;;
9304;SDS011;4690;52.422;13.486;2023-03-23T03:11:00;2.83;;;2.20;;
9304;SDS011;4690;52.422;13.486;2023-03-23T03:16:41;2.80;;;2.27;;
9304;SDS011;4690;52.422;13.486;2023-03-23T03:19:48;2.20;;;2.00;;
9304;SDS011;4690;52.422;13.486;2023-03-23T03:22:17;2.43;;;2.10;;
9304;SDS011;4690;52.422;13.486;2023-03-23T03:24:46;3.63;;;2.33;;
9304;SDS011;4690;52.422;13.486;2023-03-23T03:27:16;2.93;;;2.23;;
9304;SDS011;4690;52.422;13.486;2023-03-23T03:29:47;2.50;;;2.20;;
9304;SDS011;4690;52.422;13.486;2023-03-23T03:32:25;2.30;;;2.00;;
9304;SDS011;4690;52.422;13.486;2023-03-23T03:35:03;2.93;;;2.20;;
9304;SDS011;4690;52.422;13.486;2023-03-23T03:37:37;2.40;;;2.13;;
9304;SDS011;4690;52.422;13.486;2023-03-23T03:40:08;3.30;;;2.40;;
9304;SDS011;4690;52.422;13.486;2023-03-23T03:42:38;2.33;;;1.97;;
9304;SDS011;4690;52.422;13.486;2023-03-23T03:45:07;2.53;;;2.33;;
9304;SDS011;4690;52.422;13.486;2023-03-23T03:47:35;2.10;;;1.90;;
9304;SDS011;4690;52.422;13.486;2023-03-23T03:50:01;4.43;;;2.00;;
9304;SDS011;4690;52.422;13.486;2023-03-23T03:52:27;2.30;;;2.10;;
9304;SDS011;4690;52.422;13.486;2023-03-23T03:54:54;2.80;;;2.27;;
9304;SDS011;4690;52.422;13.486;2023-03-23T03:57:21;3.83;;;2.10;;
9304;SDS011;4690;52.422;13.486;2023-03-23T03:59:47;2.53;;;2.30;;
9304;SDS011;4690;52.422;13.486;2023-03-23T04:02:13;3.50;;;2.30;;
9304;SDS011;4690;52.422;13.486;2023-03-23T04:04:41;2.53;;;2.33;;
9304;SDS011;4690;52.422;13.486;2023-03-23T04:07:08;2.27;;;2.07;;
9304;SDS011;4690;52.422;13.486;2023-03-23T04:09:38;2.13;;;1.90;;
9304;SDS011;4690;52.422;13.486;2023-03-23T04:12:11;2.67;;;2.20;;
9304;SDS011;4690;52.422;13.486;2023-03-23T04:14:38;2.30;;;2.10;;
9304;SDS011;4690;52.422;13.486;2023-03-23T04:17:04;5.00;;;2.20;;
9304;SDS011;4690;52.422;13.486;2023-03-23T04:19:32;3.00;;;2.10;;
9304;SDS011;4690;52.422;13.486;2023-03-23T04:21:58;3.47;;;2.27;;
9304;SDS011;4690;52.422;13.486;2023-03-23T04:24:24;3.23;;;2.07;;
9304;SDS011;4690;52.422;13.486;2023-03-23T04:26:53;3.60;;;2.10;;
9304;SDS011;4690;52.422;13.486;2023-03-23T04:29:19;2.40;;;2.10;;
9304;SDS011;4690;52.422;13.486;2023-03-23T04:31:45;3.50;;;2.13;;
9304;SDS011;4690;52.422;13.486;2023-03-23T04:34:11;2.40;;;2.20;;
9304;SDS011;4690;52.422;13.486;2023-03-23T04:36:40;2.33;;;2.13;;
9304;SDS011;4690;52.422;13.486;2023-03-23T04:39:07;5.50;;;2.30;;
9304;SDS011;4690;52.422;13.486;2023-03-23T04:41:38;2.60;;;2.40;;
9304;SDS011;4690;52.422;13.486;2023-03-23T04:44:05;3.63;;;2.60;;
9304;SDS011;4690;52.422;13.486;2023-03-23T04:46:32;3.10;;;2.80;;
9304;SDS011;4690;52.422;13.486;2023-03-23T04:48:58;3.20;;;2.83;;
9304;SDS011;4690;52.422;13.486;2023-03-23T04:51:25;5.10;;;3.00;;
9304;SDS011;4690;52.422;13.486;2023-03-23T04:53:53;2.77;;;2.57;;
9304;SDS011;4690;52.422;13.486;2023-03-23T04:56:19;3.17;;;2.60;;
9304;SDS011;4690;52.422;13.486;2023-03-23T04:58:45;3.53;;;2.30;;
9304;SDS011;4690;52.422;13.486;2023-03-23T05:01:12;2.87;;;2.33;;
9304;SDS011;4690;52.422;13.486;2023-03-23T05:03:39;3.83;;;2.47;;
9304;SDS011;4690;52.422;13.486;2023-03-23T05:06:06;3.73;;;2.23;;
9304;SDS011;4690;52.422;13.486;2023-03-23T05:08:32;3.87;;;2.30;;
9304;SDS011;4690;52.422;13.486;2023-03-23T05:10:58;2.80;;;2.30;;
9304;SDS011;4690;52.422;13.486;2023-03-23T05:13:26;2.60;;;2.40;;
9304;SDS011;4690;52.422;13.486;2023-03-23T05:15:53;2.90;;;2.40;;
9304;SDS011;4690;52.422;13.486;2023-03-23T05:18:19;2.43;;;2.23;;
9304;SDS011;4690;52.422;13.486;2023-03-23T05:20:46;2.43;;;2.23;;
9304;SDS011;4690;52.422;13.486;2023-03-23T05:23:13;3.63;;;2.47;;
9304;SDS011;4690;52.422;13.486;2023-03-23T05:25:39;3.40;;;2.73;;
9304;SDS011;4690;52.422;13.486;2023-03-23T05:28:09;4.60;;;2.87;;
9304;SDS011;4690;52.422;13.486;2023-03-23T05:30:36;2.80;;;2.60;;
9304;SDS011;4690;52.422;13.486;2023-03-23T05:33:03;3.10;;;2.80;;
9304;SDS011;4690;52.422;13.486;2023-03-23T05:35:30;2.70;;;2.50;;
9304;SDS011;4690;52.422;13.486;2023-03-23T05:37:56;3.07;;;2.30;;
9304;SDS011;4690;52.422;13.486;2023-03-23T05:40:22;3.00;;;2.70;;
9304;SDS011;4690;52.422;13.486;2023-03-23T05:42:51;2.87;;;2.40;;
9304;SDS011;4690;52.422;13.486;2023-03-23T05:45:17;3.43;;;2.90;;
9304;SDS011;4690;52.422;13.486;2023-03-23T05:47:44;3.00;;;2.50;;
9304;SDS011;4690;52.422;13.486;2023-03-23T05:50:11;2.87;;;2.60;;
9304;SDS011;4690;52.422;13.486;2023-03-23T05:52:41;3.40;;;3.00;;
9304;SDS011;4690;52.422;13.486;2023-03-23T05:55:07;4.20;;;3.30;;
9304;SDS011;4690;52.422;13.486;2023-03-23T05:57:34;4.23;;;3.20;;
9304;SDS011;4690;52.422;13.486;2023-03-23T05:59:59;4.13;;;3.43;;
9304;SDS011;4690;52.422;13.486;2023-03-23T06:02:30;3.33;;;3.10;;
9304;SDS011;4690;52.422;13.486;2023-03-23T06:04:56;4.83;;;3.30;;
9304;SDS011;4690;52.422;13.486;2023-03-23T06:07:23;5.77;;;3.93;;
9304;SDS011;4690;52.422;13.486;2023-03-23T06:09:50;6.23;;;3.23;;
9304;SDS011;4690;52.422;13.486;2023-03-23T06:12:17;6.30;;;3.70;;
9304;SDS011;4690;52.422;13.486;2023-03-23T06:14:47;4.00;;;3.60;;
9304;SDS011;4690;52.422;13.486;2023-03-23T06:17:14;4.23;;;3.17;;
9304;SDS011;4690;52.422;13.486;2023-03-23T06:19:42;3.90;;;3.03;;
9304;SDS011;4690;52.422;13.486;2023-03-23T06:22:10;4.40;;;3.20;;
9304;SDS011;4690;52.422;13.486;2023-03-23T06:24:36;3.70;;;3.03;;
9304;SDS011;4690;52.422;13.486;2023-03-23T06:27:01;6.47;;;2.93;;
9304;SDS011;4690;52.422;13.486;2023-03-23T06:29:27;4.70;;;3.00;;
9304;SDS011;4690;52.422;13.486;2023-03-23T06:31:57;5.03;;;3.17;;
9304;SDS011;4690;52.422;13.486;2023-03-23T06:34:30;3.97;;;3.00;;
9304;SDS011;4690;52.422;13.486;2023-03-23T06:36:57;4.90;;;3.03;;
9304;SDS011;4690;52.422;13.486;2023-03-23T06:39:23;5.50;;;3.53;;
9304;SDS011;4690;52.422;13.486;2023-03-23T06:41:49;7.27;;;3.80;;
9304;SDS011;4690;52.422;13.486;2023-03-23T06:44:16;4.20;;;3.30;;
9304;SDS011;4690;52.422;13.486;2023-03-23T06:46:42;6.23;;;3.40;;
9304;SDS011;4690;52.422;13.486;2023-03-23T06:49:08;5.63;;;3.17;;
9304;SDS011;4690;52.422;13.486;2023-03-23T06:51:34;5.43;;;3.07;;
9304;SDS011;4690;52.422;13.486;2023-03-23T06:54:02;6.77;;;3.10;;
9304;SDS011;4690;52.422;13.486;2023-03-23T06:56:29;6.60;;;3.80;;
9304;SDS011;4690;52.422;13.486;2023-03-23T06:58:56;4.87;;;3.20;;
9304;SDS011;4690;52.422;13.486;2023-03-23T07:01:22;4.17;;;3.30;;
9304;SDS011;4690;52.422;13.486;2023-03-23T07:03:48;5.20;;;3.10;;
9304;SDS011;4690;52.422;13.486;2023-03-23T07:06:14;4.37;;;3.50;;
9304;SDS011;4690;52.422;13.486;2023-03-23T07:08:41;4.30;;;3.00;;
9304;SDS011;4690;52.422;13.486;2023-03-23T07:11:07;4.47;;;3.70;;
9304;SDS011;4690;52.422;13.486;2023-03-23T07:13:35;4.87;;;3.57;;
9304;SDS011;4690;52.422;13.486;2023-03-23T07:16:03;4.23;;;3.53;;
9304;SDS011;4690;52.422;13.486;2023-03-23T07:18:31;5.30;;;3.00;;
9304;SDS011;4690;52.422;13.486;2023-03-23T07:20:57;6.13;;;3.40;;
9304;SDS011;4690;52.422;13.486;2023-03-23T07:23:22;4.03;;;3.03;;
9304;SDS011;4690;52.422;13.486;2023-03-23T07:25:48;4.47;;;2.73;;
9304;SDS011;4690;52.422;13.486;2023-03-23T07:28:14;4.87;;;3.00;;
9304;SDS011;4690;52.422;13.486;2023-03-23T07:30:41;6.20;;;3.60;;
9304;SDS011;4690;52.422;13.486;2023-03-23T07:33:08;4.77;;;3.47;;
9304;SDS011;4690;52.422;13.486;2023-03-23T07:35:34;6.90;;;3.50;;
9304;SDS011;4690;52.422;13.486;2023-03-23T07:38:00;4.63;;;3.10;;
9304;SDS011;4690;52.422;13.486;2023-03-23T07:40:28;5.00;;;3.10;;
9304;SDS011;4690;52.422;13.486;2023-03-23T07:42:58;4.77;;;3.20;;
9304;SDS011;4690;52.422;13.486;2023-03-23T07:45:26;7.03;;;3.40;;
9304;SDS011;4690;52.422;13.486;2023-03-23T07:47:52;5.60;;;3.50;;
9304;SDS011;4690;52.422;13.486;2023-03-23T07:50:18;4.60;;;3.40;;
9304;SDS011;4690;52.422;13.486;2023-03-23T07:52:47;4.00;;;3.37;;
9304;SDS011;4690;52.422;13.486;2023-03-23T07:55:13;4.20;;;3.43;;
9304;SDS011;4690;52.422;13.486;2023-03-23T07:57:46;4.83;;;3.40;;
9304;SDS011;4690;52.422;13.486;2023-03-23T08:00:14;3.77;;;3.33;;
9304;SDS011;4690;52.422;13.486;2023-03-23T08:02:45;6.37;;;3.70;;
9304;SDS011;4690;52.422;13.486;2023-03-23T08:05:13;4.60;;;3.70;;
9304;SDS011;4690;52.422;13.486;2023-03-23T08:07:40;3.57;;;3.27;;
9304;SDS011;4690;52.422;13.486;2023-03-23T08:10:08;5.90;;;3.83;;
9304;SDS011;4690;52.422;13.486;2023-03-23T08:12:36;4.37;;;3.70;;
9304;SDS011;4690;52.422;13.486;2023-03-23T08:15:03;5.27;;;3.60;;
9304;SDS011;4690;52.422;13.486;2023-03-23T08:17:31;3.93;;;3.03;;
9304;SDS011;4690;52.422;13.486;2023-03-23T08:19:58;6.23;;;3.47;;
9304;SDS011;4690;52.422;13.486;2023-03-23T08:22:23;5.47;;;3.40;;
9304;SDS011;4690;52.422;13.486;2023-03-23T08:24:49;4.50;;;3.67;;
9304;SDS011;4690;52.422;13.486;2023-03-23T08:27:15;4.63;;;3.00;;
9304;SDS011;4690;52.422;13.486;2023-03-23T08:29:43;5.77;;;3.77;;
9304;SDS011;4690;52.422;13.486;2023-03-23T08:32:11;3.63;;;3.17;;
9304;SDS011;4690;52.422;13.486;2023-03-23T08:34:37;4.40;;;3.93;;
9304;SDS011;4690;52.422;13.486;2023-03-23T08:37:03;3.63;;;3.33;;
9304;SDS011;4690;52.422;13.486;2023-03-23T08:39:29;4.73;;;3.40;;
9304;SDS011;4690;52.422;13.486;2023-03-23T08:41:56;4.43;;;3.10;;
9304;SDS011;4690;52.422;13.486;2023-03-23T08:44:22;4.43;;;3.30;;
9304;SDS011;4690;52.422;13.486;2023-03-23T08:46:48;3.60;;;3.30;;
9304;SDS011;4690;52.422;13.486;2023-03-23T08:49:14;4.97;;;3.27;;
9304;SDS011;4690;52.422;13.486;2023-03-23T08:51:40;3.17;;;2.80;;
9304;SDS011;4690;52.422;13.486;2023-03-23T08:54:07;3.00;;;2.80;;
9304;SDS011;4690;52.422;13.486;2023-03-23T08:56:32;3.60;;;3.30;;
9304;SDS011;4690;52.422;13.486;2023-03-23T08:58:58;4.10;;;3.33;;
9304;SDS011;4690;52.422;13.486;2023-03-23T09:01:24;2.90;;;2.70;;
9304;SDS011;4690;52.422;13.486;2023-03-23T09:03:51;7.90;;;3.00;;
9304;SDS011;4690;52.422;13.486;2023-03-23T09:06:17;3.80;;;3.03;;
9304;SDS011;4690;52.422;13.486;2023-03-23T09:08:43;3.97;;;3.10;;
9304;SDS011;4690;52.422;13.486;2023-03-23T09:11:09;3.37;;;2.87;;
9304;SDS011;4690;52.422;13.486;2023-03-23T09:13:36;3.00;;;2.60;;
9304;SDS011;4690;52.422;13.486;2023-03-23T09:16:04;3.73;;;3.07;;
9304;SDS011;4690;52.422;13.486;2023-03-23T09:18:32;4.47;;;2.57;;
9304;SDS011;4690;52.422;13.486;2023-03-23T09:20:59;3.40;;;2.60;;
9304;SDS011;4690;52.422;13.486;2023-03-23T09:23:26;4.20;;;3.23;;
9304;SDS011;4690;52.422;13.486;2023-03-23T09:25:52;3.23;;;2.83;;
9304;SDS011;4690;52.422;13.486;2023-03-23T09:28:18;3.37;;;2.70;;
9304;SDS011;4690;52.422;13.486;2023-03-23T09:30:45;4.33;;;2.80;;
9304;SDS011;4690;52.422;13.486;2023-03-23T09:33:12;5.00;;;2.70;;
9304;SDS011;4690;52.422;13.486;2023-03-23T09:35:39;3.90;;;2.80;;
9304;SDS011;4690;52.422;13.486;2023-03-23T09:38:08;2.80;;;2.60;;
9304;SDS011;4690;52.422;13.486;2023-03-23T09:49:35;2.30;;;2.10;;
9304;SDS011;4690;52.422;13.486;2023-03-23T09:52:53;2.87;;;2.20;;
9304;SDS011;4690;52.422;13.486;2023-03-23T09:55:25;2.70;;;2.20;;
9304;SDS011;4690;52.422;13.486;2023-03-23T10:00:43;2.70;;;2.10;;
9304;SDS011;4690;52.422;13.486;2023-03-23T10:03:30;4.20;;;2.10;;
9304;SDS011;4690;52.422;13.486;2023-03-23T10:06:04;2.10;;;1.90;;
9304;SDS011;4690;52.422;13.486;2023-03-23T10:08:38;2.30;;;2.00;;
9304;SDS011;4690;52.422;13.486;2023-03-23T10:11:21;2.40;;;2.20;;
9304;SDS011;4690;52.422;13.486;2023-03-23T10:19:56;2.30;;;1.77;;
9304;SDS011;4690;52.422;13.486;2023-03-23T10:22:35;5.47;;;1.90;;
9304;SDS011;4690;52.422;13.486;2023-03-23T10:25:22;5.27;;;2.37;;
9304;SDS011;4690;52.422;13.486;2023-03-23T10:27:59;2.17;;;1.80;;
9304;SDS011;4690;52.422;13.486;2023-03-23T10:30:44;2.27;;;1.90;;
9304;SDS011;4690;52.422;13.486;2023-03-23T10:33:27;2.43;;;1.70;;
9304;SDS011;4690;52.422;13.486;2023-03-23T10:36:06;2.60;;;2.10;;
9304;SDS011;4690;52.422;13.486;2023-03-23T10:38:43;2.40;;;2.10;;
9304;SDS011;4690;52.422;13.486;2023-03-23T10:41:18;2.47;;;2.23;;
9304;SDS011;4690;52.422;13.486;2023-03-23T10:43:46;1.90;;;1.80;;
9304;SDS011;4690;52.422;13.486;2023-03-23T10:49:18;2.77;;;2.00;;
9304;SDS011;4690;52.422;13.486;2023-03-23T10:51:55;2.10;;;1.90;;
9304;SDS011;4690;52.422;13.486;2023-03-23T10:54:58;3.50;;;1.90;;
9304;SDS011;4690;52.422;13.486;2023-03-23T10:57:31;2.17;;;1.97;;
9304;SDS011;4690;52.422;13.486;2023-03-23T11:00:00;3.80;;;2.10;;
9304;SDS011;4690;52.422;13.486;2023-03-23T11:05:50;2.90;;;1.90;;
9304;SDS011;4690;52.422;13.486;2023-03-23T11:08:29;3.80;;;1.97;;
9304;SDS011;4690;52.422;13.486;2023-03-23T11:11:16;2.97;;;2.13;;
9304;SDS011;4690;52.422;13.486;2023-03-23T11:13:49;2.35;;;1.90;;
9304;SDS011;4690;52.422;13.486;2023-03-23T11:16:29;2.40;;;2.10;;
9304;SDS011;4690;52.422;13.486;2023-03-23T11:18:59;2.93;;;2.20;;
9304;SDS011;4690;52.422;13.486;2023-03-23T11:21:38;2.10;;;1.90;;
9304;SDS011;4690;52.422;13.486;2023-03-23T11:24:07;1.80;;;1.70;;
9304;SDS011;4690;52.422;13.486;2023-03-23T11:26:34;2.50;;;2.10;;
9304;SDS011;4690;52.422;13.486;2023-03-23T11:29:12;4.00;;;1.88;;
9304;SDS011;4690;52.422;13.486;2023-03-23T11:31:44;2.33;;;1.90;;
9304;SDS011;4690;52.422;13.486;2023-03-23T11:36:50;2.88;;;1.90;;
9304;SDS011;4690;52.422;13.486;2023-03-23T11:39:26;3.67;;;1.80;;
9304;SDS011;4690;52.422;13.486;2023-03-23T11:41:58;1.80;;;1.70;;
9304;SDS011;4690;52.422;13.486;2023-03-23T11:44:40;2.20;;;2.00;;
9304;SDS011;4690;52.422;13.486;2023-03-23T11:50:16;2.45;;;2.10;;
9304;SDS011;4690;52.422;13.486;2023-03-23T11:52:52;2.72;;;2.20;;
9304;SDS011;4690;52.422;13.486;2023-03-23T11:58:14;2.53;;;1.90;;
9304;SDS011;4690;52.422;13.486;2023-03-23T12:00:51;2.22;;;2.00;;
9304;SDS011;4690;52.422;13.486;2023-03-23T12:06:24;3.20;;;1.90;;
9304;SDS011;4690;52.422;13.486;2023-03-23T12:12:33;3.20;;;2.00;;
9304;SDS011;4690;52.422;13.486;2023-03-23T12:15:27;2.90;;;1.98;;
9304;SDS011;4690;52.422;13.486;2023-03-23T12:21:16;2.10;;;1.90;;
9304;SDS011;4690;52.422;13.486;2023-03-23T12:26:37;5.35;;;4.85;;
9304;SDS011;4690;52.422;13.486;2023-03-23T12:41:12;2.30;;;2.10;;
9304;SDS011;4690;52.422;13.486;2023-03-23T12:44:10;4.55;;;1.90;;
9304;SDS011;4690;52.422;13.486;2023-03-23T12:49:31;2.38;;;2.17;;
9304;SDS011;4690;52.422;13.486;2023-03-23T12:52:20;3.72;;;2.17;;
9304;SDS011;4690;52.422;13.486;2023-03-23T12:55:45;2.13;;;2.00;;
9304;SDS011;4690;52.422;13.486;2023-03-23T12:58:21;2.75;;;2.45;;
9304;SDS011;4690;52.422;13.486;2023-03-23T13:03:26;1.92;;;1.83;;
9304;SDS011;4690;52.422;13.486;2023-03-23T13:08:51;2.20;;;1.90;;
9304;SDS011;4690;52.422;13.486;2023-03-23T13:25:06;2.47;;;1.95;;
9304;SDS011;4690;52.422;13.486;2023-03-23T13:27:40;3.10;;;2.30;;
9304;SDS011;4690;52.422;13.486;2023-03-23T13:30:17;2.42;;;1.90;;
9304;SDS011;4690;52.422;13.486;2023-03-23T13:32:47;1.85;;;1.75;;
9304;SDS011;4690;52.422;13.486;2023-03-23T13:35:14;4.07;;;2.40;;
9304;SDS011;4690;52.422;13.486;2023-03-23T13:37:50;2.72;;;2.20;;
9304;SDS011;4690;52.422;13.486;2023-03-23T13:40:27;2.55;;;1.98;;
9304;SDS011;4690;52.422;13.486;2023-03-23T13:42:58;3.13;;;2.10;;
9304;SDS011;4690;52.422;13.486;2023-03-23T13:53:31;3.03;;;2.40;;
9304;SDS011;4690;52.422;13.486;2023-03-23T13:56:21;3.15;;;1.95;;
9304;SDS011;4690;52.422;13.486;2023-03-23T13:59:06;2.60;;;2.10;;
9304;SDS011;4690;52.422;13.486;2023-03-23T14:01:39;3.47;;;2.15;;
9304;SDS011;4690;52.422;13.486;2023-03-23T14:04:11;2.45;;;1.92;;
9304;SDS011;4690;52.422;13.486;2023-03-23T14:06:43;2.40;;;2.08;;
9304;SDS011;4690;52.422;13.486;2023-03-23T14:09:14;3.35;;;2.00;;
9304;SDS011;4690;52.422;13.486;2023-03-23T14:11:54;2.50;;;2.15;;
9304;SDS011;4690;52.422;13.486;2023-03-23T14:14:25;2.58;;;2.03;;
9304;SDS011;4690;52.422;13.486;2023-03-23T14:17:11;3.38;;;2.20;;
9304;SDS011;4690;52.422;13.486;2023-03-23T14:19:54;2.97;;;2.03;;
9304;SDS011;4690;52.422;13.486;2023-03-23T14:24:58;3.25;;;2.20;;
9304;SDS011;4690;52.422;13.486;2023-03-23T14:27:46;3.13;;;2.25;;
9304;SDS011;4690;52.422;13.486;2023-03-23T14:30:22;3.72;;;2.38;;
9304;SDS011;4690;52.422;13.486;2023-03-23T14:32:52;2.47;;;2.10;;
9304;SDS011;4690;52.422;13.486;2023-03-23T14:35:30;3.05;;;2.22;;
9304;SDS011;4690;52.422;13.486;2023-03-23T14:37:59;3.83;;;2.08;;
9304;SDS011;4690;52.422;13.486;2023-03-23T14:40:26;2.90;;;2.10;;
9304;SDS011;4690;52.422;13.486;2023-03-23T14:42:55;2.75;;;2.33;;
9304;SDS011;4690;52.422;13.486;2023-03-23T14:45:23;2.72;;;2.25;;
9304;SDS011;4690;52.422;13.486;2023-03-23T14:47:52;2.83;;;2.25;;
9304;SDS011;4690;52.422;13.486;2023-03-23T14:55:59;2.95;;;2.20;;
9304;SDS011;4690;52.422;13.486;2023-03-23T14:58:36;3.70;;;2.15;;
9304;SDS011;4690;52.422;13.486;2023-03-23T15:03:41;2.25;;;1.90;;
9304;SDS011;4690;52.422;13.486;2023-03-23T15:06:17;4.60;;;2.58;;
9304;SDS011;4690;52.422;13.486;2023-03-23T15:08:48;3.08;;;2.10;;
9304;SDS011;4690;52.422;13.486;2023-03-23T15:13:45;3.38;;;1.90;;
9304;SDS011;4690;52.422;13.486;2023-03-23T15:18:56;3.63;;;2.10;;
9304;SDS011;4690;52.422;13.486;2023-03-23T15:21:33;4.75;;;2.15;;
9304;SDS011;4690;52.422;13.486;2023-03-23T15:24:26;3.38;;;2.15;;
9304;SDS011;4690;52.422;13.486;2023-03-23T15:30:13;2.53;;;2.00;;
9304;SDS011;4690;52.422;13.486;2023-03-23T15:33:08;3.20;;;1.98;;
9304;SDS011;4690;52.422;13.486;2023-03-23T15:35:38;2.33;;;1.95;;
9304;SDS011;4690;52.422;13.486;2023-03-23T15:40:52;2.42;;;2.13;;
9304;SDS011;4690;52.422;13.486;2023-03-23T15:43:21;4.03;;;2.13;;
9304;SDS011;4690;52.422;13.486;2023-03-23T15:45:59;2.60;;;2.00;;
9304;SDS011;4690;52.422;13.486;2023-03-23T15:48:30;3.08;;;2.10;;
9304;SDS011;4690;52.422;13.486;2023-03-23T15:51:16;2.70;;;2.20;;
9304;SDS011;4690;52.422;13.486;2023-03-23T15:53:44;3.03;;;1.90;;
9304;SDS011;4690;52.422;13.486;2023-03-23T15:56:11;2.05;;;1.95;;
9304;SDS011;4690;52.422;13.486;2023-03-23T15:58:38;1.83;;;1.73;;
9304;SDS011;4690;52.422;13.486;2023-03-23T16:01:26;2.83;;;1.90;;
9304;SDS011;4690;52.422;13.486;2023-03-23T16:03:56;2.67;;;1.90;;
9304;SDS011;4690;52.422;13.486;2023-03-23T16:06:31;4.85;;;1.90;;
9304;SDS011;4690;52.422;13.486;2023-03-23T16:08:59;3.65;;;2.13;;
9304;SDS011;4690;52.422;13.486;2023-03-23T16:11:28;2.20;;;2.00;;
9304;SDS011;4690;52.422;13.486;2023-03-23T16:13:56;2.28;;;1.90;;
9304;SDS011;4690;52.422;13.486;2023-03-23T16:17:05;2.97;;;1.88;;
9304;SDS011;4690;52.422;13.486;2023-03-23T16:19:14;2.38;;;2.03;;
9304;SDS011;4690;52.422;13.486;2023-03-23T16:21:40;3.15;;;1.90;;
9304;SDS011;4690;52.422;13.486;2023-03-23T16:24:07;1.70;;;1.60;;
9304;SDS011;4690;52.422;13.486;2023-03-23T16:26:35;3.58;;;1.98;;
9304;SDS011;4690;52.422;13.486;2023-03-23T16:29:08;3.22;;;2.00;;
9304;SDS011;4690;52.422;13.486;2023-03-23T16:31:37;3.50;;;2.00;;
9304;SDS011;4690;52.422;13.486;2023-03-23T16:34:02;3.00;;;2.03;;
9304;SDS011;4690;52.422;13.486;2023-03-23T16:36:28;2.88;;;1.52;;
9304;SDS011;4690;52.422;13.486;2023-03-23T16:38:54;3.05;;;1.85;;
9304;SDS011;4690;52.422;13.486;2023-03-23T16:41:20;2.58;;;2.17;;
9304;SDS011;4690;52.422;13.486;2023-03-23T16:43:45;5.70;;;2.00;;
9304;SDS011;4690;52.422;13.486;2023-03-23T16:46:11;5.07;;;2.00;;
9304;SDS011;4690;52.422;13.486;2023-03-23T16:48:38;2.05;;;1.55;;
9304;SDS011;4690;52.422;13.486;2023-03-23T16:51:04;3.20;;;2.00;;
9304;SDS011;4690;52.422;13.486;2023-03-23T16:53:30;2.20;;;1.75;;
9304;SDS011;4690;52.422;13.486;2023-03-23T16:55:56;2.17;;;1.83;;
9304;SDS011;4690;52.422;13.486;2023-03-23T16:58:22;3.20;;;1.92;;
9304;SDS011;4690;52.422;13.486;2023-03-23T17:00:49;3.72;;;2.00;;
9304;SDS011;4690;52.422;13.486;2023-03-23T17:03:19;2.50;;;1.80;;
9304;SDS011;4690;52.422;13.486;2023-03-23T17:05:47;2.13;;;1.75;;
9304;SDS011;4690;52.422;13.486;2023-03-23T17:08:15;1.95;;;1.77;;
9304;SDS011;4690;52.422;13.486;2023-03-23T17:10:42;2.97;;;1.90;;
9304;SDS011;4690;52.422;13.486;2023-03-23T17:13:08;2.33;;;1.83;;
9304;SDS011;4690;52.422;13.486;2023-03-23T17:15:35;3.13;;;1.88;;
9304;SDS011;4690;52.422;13.486;2023-03-23T17:18:05;2.55;;;1.70;;
9304;SDS011;4690;52.422;13.486;2023-03-23T17:20:31;2.00;;;1.80;;
9304;SDS011;4690;52.422;13.486;2023-03-23T17:22:58;2.92;;;1.90;;
9304;SDS011;4690;52.422;13.486;2023-03-23T17:25:24;2.40;;;2.20;;
9304;SDS011;4690;52.422;13.486;2023-03-23T17:27:51;3.00;;;2.70;;
9304;SDS011;4690;52.422;13.486;2023-03-23T17:30:17;3.85;;;2.53;;
9304;SDS011;4690;52.422;13.486;2023-03-23T17:32:43;5.20;;;2.33;;
9304;SDS011;4690;52.422;13.486;2023-03-23T17:35:11;5.30;;;2.47;;
9304;SDS011;4690;52.422;13.486;2023-03-23T17:37:36;3.97;;;2.33;;